Time;durP1;ratioP1;P1;durP2;ratioP2;P2;SDS_P1;SDS_P2;PMS_P1;PMS_P2;Temp;Humidity;BMP_temperature;BMP_pressure;BME280_temperature;BME280_humidity;BME280_pressure;Samples;Min_cycle;Max_cycle;Signal;HPM_P1;HPM_P2
2023/01/26 00:00:20;;;;;;;17.73;10.77;;;1.00;99.90;;;;;;4972765;28;20208;-48
2023/01/26 00:02:48;;;;;;;16.87;10.37;;;1.00;99.90;;;;;;4972017;28;20264;-47
2023/01/26 00:05:16;;;;;;;16.87;10.60;;;1.00;99.90;;;;;;4977772;28;20205;-48
2023/01/26 00:07:44;;;;;;;18.17;10.73;;;1.10;99.90;;;;;;4973908;28;20204;-48
2023/01/26 00:10:11;;;;;;;27.10;13.57;;;1.10;99.90;;;;;;4978145;28;20201;-47
2023/01/26 00:12:42;;;;;;;18.10;11.43;;;1.10;99.90;;;;;;4972189;28;20210;-48
2023/01/26 00:15:10;;;;;;;14.77;10.13;;;1.00;99.90;;;;;;4978588;28;20202;-47
2023/01/26 00:17:37;;;;;;;14.00;9.80;;;1.00;99.90;;;;;;4975391;28;20209;-49
2023/01/26 00:20:05;;;;;;;16.47;10.83;;;1.00;99.90;;;;;;4979408;28;20260;-48
2023/01/26 00:22:33;;;;;;;17.47;11.77;;;1.10;99.90;;;;;;4975767;28;20225;-47
2023/01/26 00:25:00;;;;;;;17.47;10.77;;;1.10;99.90;;;;;;4978142;28;20615;-47
2023/01/26 00:27:27;;;;;;;18.30;11.40;;;1.10;99.90;;;;;;4977112;28;20654;-47
2023/01/26 00:29:54;;;;;;;16.57;10.30;;;1.10;99.90;;;;;;4973422;28;20200;-48
2023/01/26 00:32:22;;;;;;;18.27;12.13;;;1.10;99.90;;;;;;4974352;28;20259;-48
2023/01/26 00:34:49;;;;;;;20.23;12.27;;;1.00;99.90;;;;;;4975171;28;20263;-48
2023/01/26 00:37:19;;;;;;;21.57;11.30;;;1.00;99.90;;;;;;4972215;28;20222;-47
2023/01/26 00:39:47;;;;;;;20.90;12.87;;;1.00;99.90;;;;;;4976729;28;20201;-47
2023/01/26 00:42:15;;;;;;;22.37;13.17;;;0.90;99.90;;;;;;4981729;28;20219;-47
2023/01/26 00:44:43;;;;;;;21.63;12.93;;;0.90;99.90;;;;;;4979154;28;20290;-47
2023/01/26 00:47:11;;;;;;;21.47;12.73;;;0.90;99.90;;;;;;4979851;28;20228;-47
2023/01/26 00:49:38;;;;;;;18.13;12.00;;;0.90;99.90;;;;;;4975812;28;20246;-48
2023/01/26 00:52:05;;;;;;;19.93;11.43;;;0.90;99.90;;;;;;4975156;28;20207;-48
2023/01/26 00:54:33;;;;;;;21.63;12.80;;;0.90;99.90;;;;;;4978474;28;20607;-47
2023/01/26 00:57:01;;;;;;;27.10;13.53;;;0.90;99.90;;;;;;4976141;28;20220;-48
2023/01/26 00:59:31;;;;;;;20.53;12.27;;;0.80;99.90;;;;;;4972316;28;20256;-47
2023/01/26 01:01:58;;;;;;;21.70;12.93;;;0.80;99.90;;;;;;4979581;28;20272;-47
2023/01/26 01:04:25;;;;;;;20.53;12.93;;;0.80;99.90;;;;;;4976071;28;20208;-47
2023/01/26 01:06:52;;;;;;;19.90;12.27;;;0.90;99.90;;;;;;4975907;28;20714;-47
2023/01/26 01:09:19;;;;;;;21.97;12.30;;;0.80;99.90;;;;;;4977537;28;20355;-47
2023/01/26 01:11:46;;;;;;;20.27;11.83;;;0.80;99.90;;;;;;4970169;28;20249;-48
2023/01/26 01:14:15;;;;;;;21.03;12.10;;;0.90;99.90;;;;;;4973936;28;20264;-47
2023/01/26 01:16:44;;;;;;;22.77;12.87;;;0.90;99.90;;;;;;4980382;28;20715;-47
2023/01/26 01:19:13;;;;;;;20.33;12.63;;;0.90;99.90;;;;;;4972609;28;20205;-48
2023/01/26 01:21:40;;;;;;;20.57;12.23;;;0.90;99.90;;;;;;4976537;28;20751;-47
2023/01/26 01:24:08;;;;;;;21.77;12.27;;;1.00;99.90;;;;;;4978911;28;20758;-48
2023/01/26 01:26:35;;;;;;;21.33;12.27;;;0.90;99.90;;;;;;4974450;28;20230;-48
2023/01/26 01:29:02;;;;;;;23.30;12.13;;;0.90;99.90;;;;;;4974656;28;20615;-46
2023/01/26 01:31:31;;;;;;;21.63;13.07;;;0.90;99.90;;;;;;4975401;28;20207;-48
2023/01/26 01:33:58;;;;;;;19.77;10.67;;;0.90;99.90;;;;;;4976889;28;20203;-47
2023/01/26 01:36:25;;;;;;;21.53;11.20;;;0.90;99.90;;;;;;4977152;28;20283;-47
2023/01/26 01:38:52;;;;;;;21.63;11.67;;;0.90;99.90;;;;;;4974230;28;20208;-47
2023/01/26 01:41:21;;;;;;;22.43;11.57;;;0.80;99.90;;;;;;4975534;28;20638;-48
2023/01/26 01:43:48;;;;;;;22.90;11.80;;;0.80;99.90;;;;;;4968981;28;20280;-48
2023/01/26 01:46:23;;;;;;;24.07;12.30;;;0.80;99.90;;;;;;4970519;28;20221;-48
2023/01/26 01:48:57;;;;;;;20.23;11.23;;;0.80;99.90;;;;;;4971608;28;20361;-48
2023/01/26 01:51:33;;;;;;;20.67;11.77;;;0.80;99.90;;;;;;4970755;28;20225;-48
2023/01/26 01:54:05;;;;;;;20.20;12.30;;;0.80;99.90;;;;;;4974647;28;20204;-48
2023/01/26 01:56:34;;;;;;;17.27;11.23;;;0.80;99.90;;;;;;4976779;28;20220;-48
2023/01/26 01:59:03;;;;;;;17.90;10.70;;;0.80;99.90;;;;;;4973294;28;20202;-47
2023/01/26 02:01:30;;;;;;;24.43;11.97;;;0.80;99.90;;;;;;4973890;28;20301;-47
2023/01/26 02:04:04;;;;;;;20.97;10.60;;;0.80;99.90;;;;;;4972145;28;20231;-48
2023/01/26 02:06:36;;;;;;;19.90;11.40;;;0.80;99.90;;;;;;4975393;28;20308;-47
2023/01/26 02:09:05;;;;;;;22.63;11.07;;;0.80;99.90;;;;;;4977775;28;20623;-48
2023/01/26 02:11:38;;;;;;;18.77;10.90;;;0.80;99.90;;;;;;4976997;28;20586;-48
2023/01/26 02:14:08;;;;;;;19.97;10.60;;;0.80;99.90;;;;;;4972081;28;20197;-46
2023/01/26 02:16:38;;;;;;;18.40;10.30;;;0.70;99.90;;;;;;4975337;28;20252;-47
2023/01/26 02:19:14;;;;;;;19.37;9.97;;;0.70;99.90;;;;;;4970821;28;20201;-47
2023/01/26 02:21:44;;;;;;;18.73;11.10;;;0.70;99.90;;;;;;4972826;28;20260;-47
2023/01/26 02:24:17;;;;;;;17.80;10.50;;;0.70;99.90;;;;;;4975642;28;20233;-48
2023/01/26 02:26:46;;;;;;;20.03;11.20;;;0.80;99.90;;;;;;4976903;28;20226;-48
2023/01/26 02:29:14;;;;;;;17.27;10.33;;;0.80;99.90;;;;;;4972468;28;20669;-48
2023/01/26 02:31:41;;;;;;;23.17;12.97;;;0.80;99.90;;;;;;4974544;28;20663;-48
2023/01/26 02:34:08;;;;;;;17.40;9.97;;;0.80;99.90;;;;;;4977684;28;20270;-48
2023/01/26 02:36:35;;;;;;;21.17;11.33;;;0.80;99.90;;;;;;4973519;28;20234;-47
2023/01/26 02:39:30;;;;;;;15.60;9.13;;;0.70;99.90;;;;;;4967440;28;20202;-47
2023/01/26 02:44:44;;;;;;;17.93;10.57;;;0.70;99.90;;;;;;4971825;28;20208;-48
2023/01/26 02:47:12;;;;;;;20.40;10.90;;;0.70;99.90;;;;;;4974988;28;20222;-48
2023/01/26 02:49:49;;;;;;;19.97;12.07;;;0.80;99.90;;;;;;4975270;28;20260;-48
2023/01/26 02:52:20;;;;;;;21.60;10.90;;;0.80;99.90;;;;;;4977517;28;20267;-47
2023/01/26 02:57:34;;;;;;;20.13;10.17;;;0.90;99.90;;;;;;4977918;28;20213;-47
2023/01/26 03:00:01;;;;;;;22.83;11.63;;;0.90;99.90;;;;;;4975285;28;20691;-47
2023/01/26 03:02:28;;;;;;;25.47;12.40;;;0.90;99.90;;;;;;4976294;28;20238;-48
2023/01/26 03:04:55;;;;;;;18.43;10.90;;;0.80;99.90;;;;;;4979611;28;20205;-48
2023/01/26 03:07:24;;;;;;;25.47;13.13;;;0.70;99.90;;;;;;4973260;28;20240;-48
2023/01/26 03:09:51;;;;;;;23.00;12.77;;;0.70;99.90;;;;;;4981015;28;20240;-47
2023/01/26 03:12:21;;;;;;;28.93;13.90;;;0.70;99.90;;;;;;4984487;28;20201;-48
2023/01/26 03:15:33;;;;;;;21.47;10.70;;;0.70;99.90;;;;;;4976291;28;20288;-48
2023/01/26 03:17:37;;;;;;;22.93;12.23;;;0.70;99.90;;;;;;4977309;28;20211;-47
2023/01/26 03:28:21;;;;;;;23.47;12.03;;;0.70;99.90;;;;;;4974810;28;20251;-48
2023/01/26 03:30:49;;;;;;;20.70;10.83;;;0.60;99.90;;;;;;4973156;28;20231;-48
2023/01/26 03:33:16;;;;;;;20.90;11.97;;;0.60;99.90;;;;;;4978970;28;20201;-48
2023/01/26 03:35:43;;;;;;;20.53;11.27;;;0.60;99.90;;;;;;4966007;28;20354;-47
2023/01/26 03:38:11;;;;;;;23.33;11.97;;;0.60;99.90;;;;;;4973102;28;20779;-48
2023/01/26 03:57:05;;;;;;;21.23;11.33;;;0.60;99.90;;;;;;4969642;28;20303;-47
2023/01/26 03:59:38;;;;;;;18.07;10.97;;;0.60;99.90;;;;;;4974148;28;20200;-48
2023/01/26 04:10:21;;;;;;;23.27;11.73;;;0.70;99.90;;;;;;4974009;28;20207;-48
2023/01/26 04:23:48;;;;;;;25.97;12.70;;;0.70;99.90;;;;;;4964307;28;20237;-48
2023/01/26 04:26:16;;;;;;;25.50;12.83;;;0.60;99.90;;;;;;4967073;28;20288;-47
2023/01/26 04:28:43;;;;;;;23.20;11.80;;;0.60;99.90;;;;;;4971232;28;20202;-48
2023/01/26 04:31:10;;;;;;;21.93;11.87;;;0.60;99.90;;;;;;4973206;28;20289;-47
2023/01/26 04:33:38;;;;;;;21.27;11.87;;;0.60;99.90;;;;;;4971934;28;20251;-48
2023/01/26 04:36:08;;;;;;;21.53;12.00;;;0.60;99.90;;;;;;4976070;28;20276;-48
2023/01/26 04:38:35;;;;;;;22.73;11.67;;;0.60;99.90;;;;;;4970641;28;20723;-48
2023/01/26 04:41:02;;;;;;;23.13;12.77;;;0.70;99.90;;;;;;4973829;28;20263;-48
2023/01/26 04:43:29;;;;;;;21.30;12.03;;;0.70;99.90;;;;;;4972833;28;20217;-48
2023/01/26 04:46:01;;;;;;;25.07;13.40;;;0.70;99.90;;;;;;4964625;28;20225;-47
2023/01/26 04:48:28;;;;;;;23.30;11.43;;;0.60;99.90;;;;;;4973384;28;20204;-48
2023/01/26 04:50:58;;;;;;;23.53;12.17;;;0.60;99.90;;;;;;4972711;28;20202;-48
2023/01/26 04:53:25;;;;;;;20.07;12.20;;;0.60;99.90;;;;;;4972412;28;20198;-48
2023/01/26 04:55:52;;;;;;;26.87;12.33;;;0.70;99.90;;;;;;4972568;28;20241;-48
2023/01/26 04:58:20;;;;;;;26.97;13.70;;;0.60;99.90;;;;;;4971863;28;20250;-48
2023/01/26 05:00:51;;;;;;;21.50;11.87;;;0.60;99.90;;;;;;4971862;28;20211;-46
2023/01/26 05:03:18;;;;;;;21.47;13.67;;;0.60;99.90;;;;;;4972247;28;20236;-48
2023/01/26 05:05:45;;;;;;;22.23;12.53;;;0.60;99.90;;;;;;4973143;28;20234;-48
2023/01/26 05:08:13;;;;;;;24.83;11.70;;;0.50;99.90;;;;;;4973179;28;20255;-48
2023/01/26 05:10:40;;;;;;;24.00;14.23;;;0.50;99.90;;;;;;4973542;28;20232;-47
2023/01/26 05:13:07;;;;;;;24.43;13.87;;;0.60;99.90;;;;;;4973319;28;20208;-48
2023/01/26 05:15:34;;;;;;;25.43;12.43;;;0.60;99.90;;;;;;4971322;28;20230;-47
2023/01/26 05:18:01;;;;;;;22.73;13.80;;;0.60;99.90;;;;;;4972719;28;20208;-48
2023/01/26 05:20:28;;;;;;;23.10;13.97;;;0.60;99.90;;;;;;4972354;28;20597;-47
2023/01/26 05:22:55;;;;;;;29.13;15.53;;;0.60;99.90;;;;;;5004805;22;20686;-49
2023/01/26 05:25:24;;;;;;;27.37;14.80;;;0.60;99.90;;;;;;5010539;28;20204;-51
2023/01/26 05:27:52;;;;;;;30.17;15.33;;;0.60;99.90;;;;;;5010146;28;20270;-51
2023/01/26 05:30:19;;;;;;;21.90;14.17;;;0.50;99.90;;;;;;5011032;28;20197;-50
2023/01/26 05:32:46;;;;;;;28.40;15.27;;;0.50;99.90;;;;;;5006023;28;20224;-50
2023/01/26 05:35:13;;;;;;;31.47;14.70;;;0.50;99.90;;;;;;4990494;28;20275;-51
2023/01/26 05:37:41;;;;;;;25.13;14.57;;;0.40;99.90;;;;;;4990999;28;20649;-50
2023/01/26 05:40:10;;;;;;;30.70;15.67;;;0.50;99.90;;;;;;4991379;28;20204;-50
2023/01/26 05:42:38;;;;;;;26.33;15.37;;;0.50;99.90;;;;;;4991212;28;20226;-51
2023/01/26 05:45:06;;;;;;;27.40;15.20;;;0.50;99.90;;;;;;4991250;28;20230;-51
2023/01/26 05:47:33;;;;;;;25.07;14.60;;;0.50;99.90;;;;;;4990068;28;20256;-51
2023/01/26 05:50:00;;;;;;;28.37;15.27;;;0.50;99.90;;;;;;4989474;28;20688;-50
2023/01/26 05:52:27;;;;;;;26.57;15.80;;;0.50;99.90;;;;;;4990953;28;20671;-50
2023/01/26 05:54:54;;;;;;;22.90;13.50;;;0.40;99.90;;;;;;4990512;28;20205;-50
2023/01/26 05:57:21;;;;;;;24.43;14.50;;;0.40;99.90;;;;;;4991071;28;20221;-53
2023/01/26 05:59:50;;;;;;;30.20;15.13;;;0.40;99.90;;;;;;4990490;28;20217;-51
2023/01/26 06:02:21;;;;;;;27.77;15.33;;;0.40;99.90;;;;;;4988450;28;20201;-50
2023/01/26 06:04:48;;;;;;;30.50;17.50;;;0.50;99.90;;;;;;4989682;28;20223;-51
2023/01/26 06:07:15;;;;;;;28.53;14.63;;;0.60;99.90;;;;;;4984675;28;20262;-48
2023/01/26 06:09:42;;;;;;;27.27;14.67;;;0.60;99.90;;;;;;4992864;28;20243;-51
2023/01/26 06:12:19;;;;;;;31.83;16.27;;;0.50;99.90;;;;;;4993590;28;20269;-49
2023/01/26 06:14:46;;;;;;;28.80;16.00;;;0.50;99.90;;;;;;4993091;28;20202;-51
2023/01/26 06:17:15;;;;;;;28.53;15.67;;;0.50;99.90;;;;;;4993979;28;20205;-50
2023/01/26 06:19:42;;;;;;;28.37;15.07;;;0.40;99.90;;;;;;4994984;28;20205;-51
2023/01/26 06:22:10;;;;;;;26.37;16.00;;;0.40;99.90;;;;;;4994454;28;20200;-51
2023/01/26 06:24:37;;;;;;;29.97;15.90;;;0.50;99.90;;;;;;4994365;28;20290;-50
2023/01/26 06:27:06;;;;;;;30.87;16.57;;;0.50;99.90;;;;;;4993102;28;20238;-50
2023/01/26 06:29:33;;;;;;;32.40;16.60;;;0.40;99.90;;;;;;4994500;28;20206;-51
2023/01/26 06:32:00;;;;;;;26.80;15.50;;;0.40;99.90;;;;;;4994417;28;20239;-51
2023/01/26 06:34:29;;;;;;;28.30;15.50;;;0.40;99.90;;;;;;4992373;28;20224;-51
2023/01/26 06:36:56;;;;;;;25.80;14.37;;;0.40;99.90;;;;;;4992962;28;20251;-49
2023/01/26 06:39:23;;;;;;;24.80;14.80;;;0.40;99.90;;;;;;4994301;28;20208;-51
2023/01/26 06:41:50;;;;;;;29.87;16.80;;;0.50;99.90;;;;;;4985194;28;20204;-54
2023/01/26 06:44:17;;;;;;;28.67;15.13;;;0.50;99.90;;;;;;4991055;28;20678;-50
2023/01/26 06:46:44;;;;;;;25.87;14.40;;;0.50;99.90;;;;;;4990974;28;20804;-49
2023/01/26 06:49:11;;;;;;;30.60;14.97;;;0.50;99.90;;;;;;4995503;28;20200;-50
2023/01/26 06:51:57;;;;;;;27.07;14.87;;;0.50;99.90;;;;;;4996382;28;20205;-50
2023/01/26 06:54:24;;;;;;;27.77;15.13;;;0.40;99.90;;;;;;4993286;28;20702;-51
2023/01/26 06:56:51;;;;;;;25.33;15.40;;;0.40;99.90;;;;;;4989726;28;20670;-50
2023/01/26 06:59:18;;;;;;;28.53;15.30;;;0.40;99.90;;;;;;4992732;28;20274;-53
2023/01/26 07:01:47;;;;;;;28.53;14.30;;;0.40;99.90;;;;;;4991719;28;20204;-51
2023/01/26 07:04:14;;;;;;;27.90;15.30;;;0.40;99.90;;;;;;4993115;28;20226;-50
2023/01/26 07:06:42;;;;;;;24.83;13.83;;;0.40;99.90;;;;;;4991428;28;20225;-50
2023/01/26 07:09:11;;;;;;;27.13;15.20;;;0.50;99.90;;;;;;4992663;28;20213;-51
2023/01/26 07:11:38;;;;;;;28.20;13.60;;;0.50;99.90;;;;;;4992019;28;20211;-50
2023/01/26 07:14:05;;;;;;;28.13;14.83;;;0.50;99.90;;;;;;4992726;28;20224;-52
2023/01/26 07:16:32;;;;;;;30.43;15.57;;;0.50;99.90;;;;;;4991289;28;20206;-52
2023/01/26 07:18:59;;;;;;;30.70;14.67;;;0.50;99.90;;;;;;4992244;28;20284;-51
2023/01/26 07:21:26;;;;;;;28.03;14.67;;;0.50;99.90;;;;;;4993603;28;20209;-50
2023/01/26 07:23:55;;;;;;;30.97;14.83;;;0.50;99.90;;;;;;4993095;28;20220;-52
2023/01/26 07:26:24;;;;;;;31.60;14.10;;;0.50;99.90;;;;;;4991189;28;20205;-50
2023/01/26 07:28:51;;;;;;;23.57;13.73;;;0.50;99.90;;;;;;4990004;28;20197;-51
2023/01/26 07:31:19;;;;;;;31.30;15.50;;;0.50;99.90;;;;;;4992930;28;20216;-49
2023/01/26 07:33:46;;;;;;;25.50;13.57;;;0.50;99.90;;;;;;4996284;28;20249;-51
2023/01/26 07:36:16;;;;;;;25.67;14.73;;;0.50;99.90;;;;;;4994354;28;20202;-51
2023/01/26 07:38:43;;;;;;;28.17;14.43;;;0.50;99.90;;;;;;4992436;28;20207;-52
2023/01/26 07:41:12;;;;;;;26.97;15.33;;;0.50;99.90;;;;;;4991109;28;20213;-51
2023/01/26 07:43:41;;;;;;;24.77;14.50;;;0.50;99.90;;;;;;4992174;28;20259;-50
2023/01/26 07:46:09;;;;;;;24.93;14.70;;;0.50;99.90;;;;;;4991865;28;20291;-51
2023/01/26 07:48:36;;;;;;;26.40;14.33;;;0.50;99.90;;;;;;4992424;28;20217;-51
2023/01/26 07:51:04;;;;;;;37.30;15.80;;;0.50;99.90;;;;;;4991284;28;20300;-51
2023/01/26 07:53:36;;;;;;;26.63;14.90;;;0.50;99.90;;;;;;4999187;28;20220;-53
2023/01/26 07:56:08;;;;;;;23.83;14.83;;;0.50;99.90;;;;;;4995209;28;20243;-51
2023/01/26 07:58:35;;;;;;;27.97;14.73;;;0.40;99.90;;;;;;4992400;28;20615;-51
2023/01/26 08:01:11;;;;;;;26.57;14.07;;;0.40;99.90;;;;;;4993397;28;20634;-51
2023/01/26 08:03:38;;;;;;;32.33;16.80;;;0.40;99.90;;;;;;4989168;28;20234;-51
2023/01/26 08:06:06;;;;;;;26.93;14.90;;;0.40;99.90;;;;;;4992571;28;20740;-51
2023/01/26 08:08:34;;;;;;;30.63;16.10;;;0.40;99.90;;;;;;4983876;28;20204;-51
2023/01/26 08:11:01;;;;;;;31.73;17.60;;;0.50;99.90;;;;;;4991905;28;20200;-52
2023/01/26 08:13:29;;;;;;;25.40;16.47;;;0.50;99.90;;;;;;4991623;28;20229;-52
2023/01/26 08:16:01;;;;;;;28.87;16.50;;;0.50;99.90;;;;;;4992477;28;20201;-52
2023/01/26 08:18:29;;;;;;;31.63;15.63;;;0.50;99.90;;;;;;4984083;28;20205;-50
2023/01/26 08:20:56;;;;;;;27.77;14.97;;;0.50;99.90;;;;;;4990030;28;20205;-52
2023/01/26 08:23:23;;;;;;;27.37;14.37;;;0.50;99.90;;;;;;4992456;28;20236;-51
2023/01/26 08:25:50;;;;;;;26.90;14.57;;;0.50;99.90;;;;;;4992716;28;20282;-52
2023/01/26 08:28:17;;;;;;;30.93;16.20;;;0.50;99.90;;;;;;4986335;28;20283;-52
2023/01/26 08:30:44;;;;;;;27.60;14.47;;;0.50;99.90;;;;;;4992892;28;20262;-52
2023/01/26 08:33:11;;;;;;;28.10;14.40;;;0.50;99.90;;;;;;4992584;28;20712;-51
2023/01/26 08:35:39;;;;;;;23.83;13.43;;;0.50;99.90;;;;;;4993074;28;20807;-50
2023/01/26 08:38:06;;;;;;;25.93;14.60;;;0.60;99.90;;;;;;4990139;28;20733;-53
2023/01/26 08:40:33;;;;;;;27.30;12.93;;;0.60;99.90;;;;;;4993075;28;20270;-51
2023/01/26 08:43:01;;;;;;;26.33;13.60;;;0.60;99.90;;;;;;4991096;28;20889;-51
2023/01/26 08:45:29;;;;;;;25.70;14.10;;;0.60;99.90;;;;;;4992260;28;20527;-51
2023/01/26 08:47:56;;;;;;;25.60;12.67;;;0.70;99.90;;;;;;4988295;28;20572;-51
2023/01/26 08:50:24;;;;;;;23.33;12.60;;;0.60;99.90;;;;;;4988342;28;20204;-51
2023/01/26 08:52:55;;;;;;;25.43;13.30;;;0.70;99.90;;;;;;4991811;28;20220;-51
2023/01/26 08:55:22;;;;;;;24.43;13.50;;;0.60;99.90;;;;;;4993856;28;20204;-51
2023/01/26 08:57:53;;;;;;;23.33;12.73;;;0.60;99.90;;;;;;4990875;28;20210;-54
2023/01/26 09:00:22;;;;;;;31.03;14.63;;;0.70;99.90;;;;;;4989022;28;20241;-50
2023/01/26 09:02:49;;;;;;;24.83;14.13;;;0.60;99.90;;;;;;4992338;28;20233;-51
2023/01/26 09:05:16;;;;;;;27.60;13.60;;;0.60;99.90;;;;;;4990579;28;20215;-50
2023/01/26 09:07:43;;;;;;;26.60;13.30;;;0.60;99.90;;;;;;4991656;28;20210;-52
2023/01/26 09:10:12;;;;;;;28.63;12.83;;;0.60;99.90;;;;;;4991547;28;20578;-51
2023/01/26 09:12:39;;;;;;;25.10;12.17;;;0.50;99.90;;;;;;4984290;28;20782;-51
2023/01/26 09:15:07;;;;;;;22.07;11.93;;;0.60;99.90;;;;;;4990301;28;20617;-50
2023/01/26 09:17:34;;;;;;;23.60;12.47;;;0.60;99.90;;;;;;4991289;28;20261;-50
2023/01/26 09:20:01;;;;;;;23.90;13.87;;;0.60;99.90;;;;;;4991348;28;20687;-51
2023/01/26 09:22:29;;;;;;;22.27;12.47;;;0.60;99.90;;;;;;4991640;28;20335;-49
2023/01/26 09:24:56;;;;;;;27.13;13.67;;;0.60;99.90;;;;;;4979998;28;20218;-50
2023/01/26 09:27:24;;;;;;;30.00;14.73;;;0.70;99.90;;;;;;4981827;28;20260;-50
2023/01/26 09:29:52;;;;;;;19.53;12.60;;;0.70;99.90;;;;;;4983232;28;20268;-51
2023/01/26 09:32:19;;;;;;;25.27;13.40;;;0.70;99.90;;;;;;4991118;28;20924;-50
2023/01/26 09:34:46;;;;;;;27.30;13.40;;;0.60;99.90;;;;;;4991315;28;20196;-50
2023/01/26 09:37:13;;;;;;;28.13;14.63;;;0.70;99.90;;;;;;4991192;28;20256;-50
2023/01/26 09:39:40;;;;;;;32.53;13.67;;;0.70;99.90;;;;;;4989927;28;20201;-50
2023/01/26 09:42:40;;;;;;;23.17;12.73;;;0.70;99.90;;;;;;4984771;28;20253;-50
2023/01/26 09:45:19;;;;;;;27.07;13.43;;;0.70;99.90;;;;;;4994346;28;20222;-50
2023/01/26 09:47:57;;;;;;;27.43;13.90;;;0.70;99.90;;;;;;4991399;28;20201;-50
2023/01/26 09:50:28;;;;;;;28.30;13.70;;;0.70;99.90;;;;;;4995213;28;20208;-50
2023/01/26 09:52:59;;;;;;;28.23;14.83;;;0.80;99.90;;;;;;4994285;28;20220;-49
2023/01/26 09:55:29;;;;;;;32.40;15.07;;;0.80;99.90;;;;;;4995826;28;20629;-50
2023/01/26 09:58:00;;;;;;;25.37;13.83;;;0.80;99.90;;;;;;4995981;28;20584;-51
2023/01/26 10:00:34;;;;;;;28.93;15.07;;;0.80;99.90;;;;;;4996223;28;20295;-50
2023/01/26 10:03:11;;;;;;;27.70;14.83;;;0.80;99.90;;;;;;4994050;28;20224;-50
2023/01/26 10:05:44;;;;;;;28.03;15.67;;;0.80;99.90;;;;;;4995408;28;20221;-51
2023/01/26 10:08:13;;;;;;;28.27;15.33;;;0.80;99.90;;;;;;4995570;28;20622;-51
2023/01/26 10:10:48;;;;;;;21.90;12.90;;;0.80;99.90;;;;;;4995418;28;20268;-51
2023/01/26 10:13:17;;;;;;;28.25;16.65;;;0.80;99.90;;;;;;4990430;28;20520;-50
2023/01/26 10:15:50;;;;;;;25.33;14.27;;;0.80;99.90;;;;;;4993992;28;20823;-50
2023/01/26 10:18:21;;;;;;;26.63;15.40;;;0.80;99.90;;;;;;4992380;28;20605;-50
2023/01/26 10:20:51;;;;;;;28.53;16.63;;;0.80;99.90;;;;;;4994915;28;20432;-50
2023/01/26 10:23:22;;;;;;;26.17;14.23;;;0.90;99.90;;;;;;4994251;28;20793;-50
2023/01/26 10:25:50;;;;;;;30.63;15.13;;;0.90;99.90;;;;;;4994415;28;20232;-51
2023/01/26 10:28:20;;;;;;;27.90;14.47;;;0.90;99.90;;;;;;4995014;28;20610;-50
2023/01/26 10:30:50;;;;;;;26.57;15.10;;;0.90;99.90;;;;;;4994135;28;20267;-51
2023/01/26 10:33:19;;;;;;;25.87;14.57;;;0.90;99.90;;;;;;4993494;28;20756;-54
2023/01/26 10:35:47;;;;;;;25.67;13.67;;;0.80;99.90;;;;;;4992143;28;20839;-52
2023/01/26 10:38:40;;;;;;;25.67;14.67;;;0.90;99.90;;;;;;4994348;28;20279;-50
2023/01/26 10:41:22;;;;;;;25.30;14.03;;;0.90;99.90;;;;;;4994890;28;20255;-51
2023/01/26 10:43:54;;;;;;;28.83;15.83;;;1.00;99.90;;;;;;4991239;28;20714;-49
2023/01/26 10:46:29;;;;;;;29.27;14.27;;;1.00;99.90;;;;;;4993538;28;20320;-52
2023/01/26 10:48:58;;;;;;;29.03;15.63;;;1.00;99.90;;;;;;4993580;28;20221;-50
2023/01/26 10:51:29;;;;;;;25.10;13.70;;;1.00;99.90;;;;;;4992421;28;20734;-51
2023/01/26 10:54:23;;;;;;;26.13;14.00;;;0.90;99.90;;;;;;4989532;28;20317;-52
2023/01/26 10:56:53;;;;;;;27.97;14.87;;;0.90;99.90;;;;;;4990369;28;20305;-51
2023/01/26 10:59:28;;;;;;;28.23;14.73;;;0.90;99.90;;;;;;4991894;28;20741;-51
2023/01/26 11:01:59;;;;;;;27.70;14.10;;;0.90;99.90;;;;;;4991205;28;20206;-52
2023/01/26 11:04:27;;;;;;;22.73;13.40;;;0.90;99.90;;;;;;4991715;28;20251;-51
2023/01/26 11:06:54;;;;;;;29.23;14.67;;;1.00;99.90;;;;;;4991890;28;20260;-50
2023/01/26 11:09:26;;;;;;;26.47;13.47;;;1.00;99.90;;;;;;4993041;28;20267;-51
2023/01/26 11:12:01;;;;;;;27.13;14.10;;;1.10;99.90;;;;;;4992212;28;20244;-53
2023/01/26 11:14:29;;;;;;;29.50;13.27;;;1.10;99.90;;;;;;4991832;28;20294;-52
2023/01/26 11:17:14;;;;;;;28.07;15.13;;;1.10;99.90;;;;;;4993168;28;20209;-51
2023/01/26 11:19:56;;;;;;;24.83;13.83;;;1.00;99.90;;;;;;4990747;28;20283;-50
2023/01/26 11:22:30;;;;;;;24.87;12.70;;;1.00;99.90;;;;;;4993188;28;20201;-51
2023/01/26 11:25:07;;;;;;;23.27;13.70;;;1.00;99.90;;;;;;4996130;28;20219;-50
2023/01/26 11:27:46;;;;;;;26.67;13.57;;;1.00;99.90;;;;;;4990738;28;20255;-51
2023/01/26 11:30:41;;;;;;;30.33;15.70;;;1.00;99.90;;;;;;4993148;28;20672;-51
2023/01/26 11:33:17;;;;;;;29.73;15.10;;;1.00;99.90;;;;;;4987905;28;20217;-53
2023/01/26 11:35:51;;;;;;;25.27;15.17;;;1.00;99.90;;;;;;4990434;28;20255;-51
2023/01/26 11:38:38;;;;;;;25.77;13.37;;;1.10;99.90;;;;;;4990904;28;20201;-51
2023/01/26 11:41:19;;;;;;;24.27;13.40;;;1.10;99.90;;;;;;4988745;28;20747;-51
2023/01/26 11:44:21;;;;;;;25.80;13.70;;;1.10;99.90;;;;;;4988989;28;20230;-51
2023/01/26 11:47:01;;;;;;;28.37;15.47;;;1.10;99.90;;;;;;4991238;28;20705;-52
2023/01/26 11:49:47;;;;;;;23.00;13.07;;;1.20;99.90;;;;;;4989526;28;20209;-53
2023/01/26 11:52:26;;;;;;;26.50;14.10;;;1.20;99.90;;;;;;4984142;28;20199;-52
2023/01/26 11:55:14;;;;;;;26.73;15.20;;;1.30;99.90;;;;;;4992866;28;20201;-51
2023/01/26 11:57:49;;;;;;;25.23;13.70;;;1.20;99.90;;;;;;4990031;28;20203;-51
2023/01/26 12:00:20;;;;;;;26.47;14.17;;;1.20;99.90;;;;;;4992603;28;20197;-51
2023/01/26 12:02:53;;;;;;;25.80;15.57;;;1.20;99.90;;;;;;4991092;28;20221;-51
2023/01/26 12:05:26;;;;;;;22.90;14.23;;;1.30;99.90;;;;;;4991347;28;20224;-52
2023/01/26 12:07:57;;;;;;;25.17;13.23;;;1.30;99.90;;;;;;4990642;28;20227;-51
2023/01/26 12:10:29;;;;;;;25.50;14.23;;;1.40;99.90;;;;;;4992150;28;20210;-52
2023/01/26 12:13:05;;;;;;;28.33;16.60;;;1.30;99.90;;;;;;4991429;28;20760;-53
2023/01/26 12:15:36;;;;;;;27.23;15.77;;;1.30;99.90;;;;;;4987960;28;20202;-54
2023/01/26 12:18:11;;;;;;;23.83;14.73;;;1.30;99.90;;;;;;4992453;28;20267;-51
2023/01/26 12:20:44;;;;;;;28.87;16.40;;;1.30;99.90;;;;;;4990787;28;20208;-51
2023/01/26 12:23:15;;;;;;;26.70;17.30;;;1.20;99.90;;;;;;4988347;28;20850;-52
2023/01/26 12:25:47;;;;;;;26.33;14.77;;;1.20;99.90;;;;;;4989444;28;20278;-52
2023/01/26 12:28:21;;;;;;;31.47;16.50;;;1.30;99.90;;;;;;4992551;28;20253;-52
2023/01/26 12:30:58;;;;;;;31.37;16.07;;;1.30;99.90;;;;;;4991504;28;20266;-51
2023/01/26 12:33:25;;;;;;;28.60;16.27;;;1.20;99.90;;;;;;4990598;28;20318;-52
2023/01/26 12:36:19;;;;;;;30.83;15.20;;;1.30;99.90;;;;;;4990740;28;20203;-51
2023/01/26 12:39:03;;;;;;;26.30;14.07;;;1.30;99.90;;;;;;4969272;28;20211;-52
2023/01/26 12:41:42;;;;;;;29.57;14.70;;;1.40;99.90;;;;;;5036436;23;20785;-52
2023/01/26 12:44:19;;;;;;;36.20;19.53;;;1.30;99.90;;;;;;5022192;28;20205;-51
2023/01/26 12:46:51;;;;;;;28.53;17.93;;;1.30;99.90;;;;;;5028967;28;20246;-50
2023/01/26 12:49:24;;;;;;;28.43;14.73;;;1.30;99.90;;;;;;5031987;28;20209;-50
2023/01/26 12:52:00;;;;;;;24.60;14.40;;;1.30;99.90;;;;;;5011320;28;20265;-50
2023/01/26 12:54:36;;;;;;;26.83;15.73;;;1.30;99.90;;;;;;5002894;28;20203;-50
2023/01/26 12:57:07;;;;;;;24.23;14.57;;;1.30;99.90;;;;;;5010283;28;20205;-52
2023/01/26 12:59:37;;;;;;;22.60;13.37;;;1.30;99.90;;;;;;5011206;28;20577;-50
2023/01/26 13:02:21;;;;;;;28.40;14.20;;;1.30;99.90;;;;;;5007074;28;20250;-51
2023/01/26 13:04:50;;;;;;;24.47;14.60;;;1.30;99.90;;;;;;5011257;28;20206;-50
2023/01/26 13:07:33;;;;;;;23.93;12.10;;;1.30;99.90;;;;;;5009681;28;20709;-50
2023/01/26 13:10:25;;;;;;;22.60;11.23;;;1.30;99.90;;;;;;5002770;28;20220;-51
2023/01/26 13:12:54;;;;;;;25.73;14.03;;;1.20;99.90;;;;;;4999800;28;20230;-52
2023/01/26 13:15:23;;;;;;;22.77;13.50;;;1.20;99.90;;;;;;5006338;28;20208;-50
2023/01/26 13:17:59;;;;;;;23.10;13.87;;;1.10;99.90;;;;;;5008874;28;20268;-50
2023/01/26 13:20:50;;;;;;;24.60;12.60;;;1.10;99.90;;;;;;5006571;28;20283;-50
2023/01/26 13:23:42;;;;;;;27.50;13.07;;;1.10;99.90;;;;;;5006692;28;20258;-51
2023/01/26 13:26:17;;;;;;;21.53;11.53;;;1.10;99.90;;;;;;5009547;28;20227;-50
2023/01/26 13:28:45;;;;;;;26.63;14.20;;;1.10;99.90;;;;;;5006954;28;20204;-50
2023/01/26 13:31:13;;;;;;;22.67;14.30;;;1.10;99.90;;;;;;5009947;28;20467;-51
2023/01/26 13:33:41;;;;;;;25.13;12.93;;;1.20;99.90;;;;;;5011572;28;20736;-51
2023/01/26 13:36:14;;;;;;;25.60;12.77;;;1.20;99.90;;;;;;5009646;28;20950;-50
2023/01/26 13:38:47;;;;;;;22.53;12.47;;;1.20;99.90;;;;;;5010750;28;20209;-51
2023/01/26 13:41:19;;;;;;;22.20;13.13;;;1.10;99.90;;;;;;5003352;28;20660;-51
2023/01/26 13:43:51;;;;;;;21.80;12.90;;;1.20;99.90;;;;;;5008097;28;20207;-52